KRKP

Aransas Co Airport

Rockport, Texas, USA
METAR KRKP 141153Z AUTO 29012G21KT 10SM CLR 09/02 A3001 RMK AO2 SLP162 T00940022 10111 20094 53008
Observed Flight Rules
Dec-14 @ 11:53 UTC (27 minutes ago) Visual Flight Rules
Wind Visibility Clouds
290° at 12 knots
 Gusting to 21 knots
10 miles
  • Clear skies
Temperatures Readings
Current 9°C / 48°F
Dewpoint 2°C / 36°F
Humidity 62%
Altimeter 30.01" Hg
Pressure 1016.2 hPa
Elevation 6
METAR KRKP 141153Z AUTO 29012G21KT 10SM CLR 09/02 A3001 RMK AO2 SLP162 T00940022 10111 20094 53008
Observed Flight Rules
Dec-14 @ 11:53 UTC
(27 minutes ago)
VFR
Wind Visibility
290° at 12 knots
 Gusting to 21 knots
10 miles
Clouds
  • Clear skies
Temperature Dewpoint
9°C / 48°F 2°C / 36°F
Humidity Altimeter Pressure
62% 30.01" Hg 1016.2 hPa